Anshan, Liaoning

5:22 PM CST on August 28, 2014 (GMT +0800)
Taoxian | Change Station
CLOSE
Current Station
Airport
Location: Sheyang,
Elevation: 197 ft
Nearby Weather Stations

Elev 197 ft 41.64 °N, 123.48 °E | Updated 22 minutes ago

Clear
Clear
82 °F
Feels Like 82 °F
N
7
Wind Variable Wind from WSW

Today
High -- | Low -- °F
--% Chance of Precip.
Yesterday
High -- | Low -- °F
Precip. -- in
5:10 AM 6:28 PM
Waxing Crescent, 7% visible
Pressure 29.98 in
Visibility -9999.0 miles
Clouds
Heat Index 82 °F
Dew Point 59 °F
Humidity 45%
Rainfall 0.00 in
Snow Depth Not available.
UV Not available.
Pollen Not available.
Air Quality Not available.
Flu Activity Not available.
METAR ZYTX 280900Z 24003MPS CAVOK 28/15 Q1015 NOSIG

More Conditions Fewer Conditions

Pressure 29.98 in
Visibility -9999.0 miles
Clouds
Heat Index 82 °F
Dew Point 59 °F
Humidity 45%
Rainfall 0.00 in
Snow Depth Not available.
UV Not available.
Pollen Not available.
Air Quality Not available.
Flu Activity Not available.
METAR ZYTX 280900Z 24003MPS CAVOK 28/15 Q1015 NOSIG

More Conditions Fewer Conditions

10-Day Weather Forecast

Almanac

Astronomy

Aug. 28, 2014 Rise Set
Actual Time 5:10 AM CST 6:28 PM CST
Civil Twilight 4:41 AM CST 6:56 PM CST
Nautical Twilight 4:07 AM CST 7:30 PM CST
Astronomical Twilight 3:30 AM CST 8:06 PM CST
Moon 7:30 AM CST 7:31 PM CST
Length of Visible Light 14h 15m
Length of Day
13h 17m
Tomorrow will be 2m 35s shorter.
Waxing Crescent, 7% of the Moon is Illuminated
Today
Waxing Crescent
Sep 2
First Quarter
Sep 8
Full
Sep 15
Last Quarter
Sep 24
New

Yesterday's Extremes

Country Highs Country Lows

Community

WunderPhotos

Upload Photos

1,747,918 photos uploaded!

Nearby

Snow Depth

Not available.

Earthquake Activity

City Distance Mag. Time & Date
No recent earthquake activity has been reported nearby.
Minimum magnitude displayed is 2.5.

Coastal Water Temperatures

Place Temperature
No Stations Reporting

Nearby Weather Stations